Messwerte Wetterstation Ulm-Mähringen 593m (Baden-Württemberg)

Aktuelle Messwerte

Temperatur und Niederschlag
Taupunkt, Temperatur und Luftfeuchtigkeit

Anzeige

Windrichtung und Windböen
Luftdruck
Datum Temperatur °C Niederschlag l/m² (10 min) Taupunkt °C Rel. Feuchte % Windböen km/h Windrichtung Luftdruck (hPa)
20.04 - 07:20 Uhr - 0.0 - - 7 290 -
20.04 - 07:10 Uhr - 0.0 - - 5 300 -
20.04 - 07:00 Uhr - 0.0 - - 4 290 -
20.04 - 06:50 Uhr 0.2 0.0 -0.9 92 5 300 948
20.04 - 06:40 Uhr -0.9 0.0 -2.2 91 7 280 948
20.04 - 06:30 Uhr -1.3 0.0 -2.6 91 6 300 948
20.04 - 06:20 Uhr -0.3 0.0 -1.7 90 4 290 948
20.04 - 06:10 Uhr -0.3 0.0 -1.3 93 5 310 948
20.04 - 06:00 Uhr -0.4 0.0 -1.5 93 5 320 949
20.04 - 05:50 Uhr -0.8 0.0 -2.0 92 5 270 949
20.04 - 05:40 Uhr -0.5 0.0 -1.8 91 6 280 949
20.04 - 05:30 Uhr 0.1 0.0 -1.1 92 5 300 949
20.04 - 05:20 Uhr -0.5 0.0 -1.5 93 5 280 949
20.04 - 05:10 Uhr -0.8 0.0 -2.1 91 8 290 949
20.04 - 05:00 Uhr -0.5 0.0 -1.8 91 6 290 949
20.04 - 04:50 Uhr 0.1 0.0 -1.3 90 5 300 949
20.04 - 04:40 Uhr 0.7 0.0 -0.8 90 4 280 949
20.04 - 04:30 Uhr 0.6 0.0 -0.6 92 4 300 949
20.04 - 04:20 Uhr 0.3 0.0 -0.8 92 8 290 949
20.04 - 04:10 Uhr 0.0 0.0 -1.3 91 6 300 949
20.04 - 04:00 Uhr 0.3 0.0 -1.1 90 7 290 949
20.04 - 03:50 Uhr 0.2 0.0 -1.4 89 6 300 949
20.04 - 03:40 Uhr 0.5 0.0 -1.1 89 4 270 949
20.04 - 03:30 Uhr 0.9 0.0 -0.5 90 6 300 949
20.04 - 03:20 Uhr 1.0 0.0 -0.6 89 6 300 949
20.04 - 03:10 Uhr 0.5 0.0 -1.1 89 7 300 949
20.04 - 03:00 Uhr 0.7 0.0 -0.8 90 7 310 949
20.04 - 02:50 Uhr 0.6 0.0 -1.1 89 7 280 949
20.04 - 02:40 Uhr 0.8 0.0 -1.1 87 7 270 950
20.04 - 02:30 Uhr 0.9 0.0 -1.0 87 6 280 950
20.04 - 02:20 Uhr 1.2 0.0 -0.9 86 6 270 950
20.04 - 02:10 Uhr 1.9 0.0 -0.6 84 5 280 950
20.04 - 02:00 Uhr 2.4 0.0 -0.4 82 6 300 950
20.04 - 01:50 Uhr 2.7 0.0 -0.2 81 5 270 950
20.04 - 01:40 Uhr 3.0 0.0 0.0 81 5 270 950
20.04 - 01:30 Uhr 2.9 0.0 -0.2 80 6 290 950
20.04 - 01:20 Uhr 3.3 0.0 -0.1 78 8 270 950
20.04 - 01:10 Uhr 2.9 0.0 -0.2 80 8 290 950
20.04 - 01:00 Uhr 3.5 0.0 -0.2 77 8 290 950
20.04 - 00:50 Uhr 3.5 0.0 -0.1 77 7 270 950
20.04 - 00:40 Uhr 3.8 0.0 -0.2 75 7 270 950
20.04 - 00:30 Uhr 3.5 0.0 0.0 78 6 270 950
20.04 - 00:20 Uhr 3.4 0.0 -0.1 78 6 280 950
20.04 - 00:10 Uhr 3.5 0.0 -0.1 77 6 260 950
20.04 - 00:00 Uhr 4.0 0.0 -0.2 74 8 260 950
19.04 - 23:50 Uhr 4.5 0.0 -0.1 72 6 260 950
19.04 - 23:40 Uhr 4.6 0.0 -0.1 71 6 280 950
19.04 - 23:30 Uhr 4.4 0.0 -0.1 73 6 270 950
19.04 - 23:20 Uhr 4.8 0.0 -0.2 70 9 300 950
19.04 - 23:10 Uhr 4.6 0.0 -0.2 71 8 270 950
19.04 - 23:00 Uhr 4.8 0.0 -0.2 70 7 310 950
19.04 - 22:50 Uhr 4.8 0.0 -0.2 70 10 310 950
19.04 - 22:40 Uhr 5.3 0.0 -0.3 67 10 310 950
19.04 - 22:30 Uhr 5.4 0.0 -0.3 67 9 310 950
19.04 - 22:20 Uhr 5.9 0.0 -0.3 65 9 310 951
19.04 - 22:10 Uhr 6.1 0.0 -0.2 64 9 310 951
19.04 - 22:00 Uhr 6.2 0.0 -0.2 64 8 320 951
19.04 - 21:50 Uhr 5.8 0.0 0.0 66 7 300 951
19.04 - 21:40 Uhr 6.0 0.0 0.0 65 7 310 951
19.04 - 21:30 Uhr 7.0 0.0 0.0 61 7 300 951
19.04 - 21:20 Uhr 7.0 0.0 0.1 61 7 300 951
19.04 - 21:10 Uhr 6.6 0.0 -0.1 62 8 320 951
19.04 - 21:00 Uhr 7.4 0.0 -0.1 59 12 330 950
19.04 - 20:50 Uhr 7.5 0.0 -0.3 58 16 330 950
19.04 - 20:40 Uhr 8.1 0.0 -0.2 56 15 330 950
19.04 - 20:30 Uhr 8.3 0.0 -0.2 55 15 320 950
19.04 - 20:20 Uhr 8.6 0.0 -0.1 54 16 330 950
19.04 - 20:10 Uhr 9.1 0.0 -0.1 52 20 340 950
19.04 - 20:00 Uhr 9.3 0.0 0.1 53 21 320 950
19.04 - 19:50 Uhr 9.7 0.0 0.4 52 19 340 950
19.04 - 19:40 Uhr 10.2 0.0 0.0 49 17 320 950
19.04 - 19:30 Uhr 10.5 0.0 0.1 49 18 320 950
19.04 - 19:20 Uhr 10.6 0.0 0.4 49 23 320 950
19.04 - 19:10 Uhr 10.7 0.0 0.4 49 26 310 950
19.04 - 19:00 Uhr 11.0 0.0 0.2 47 27 300 950
19.04 - 18:50 Uhr 11.5 0.0 0.2 46 27 330 950
19.04 - 18:40 Uhr 11.5 0.0 -0.3 44 32 320 950
19.04 - 18:30 Uhr 11.6 0.0 1.0 48 23 310 950
19.04 - 18:20 Uhr 11.5 0.0 1.0 49 29 300 950
19.04 - 18:10 Uhr 11.6 0.0 1.4 50 31 340 950
19.04 - 18:00 Uhr 11.8 0.0 0.8 47 31 330 950
19.04 - 17:50 Uhr 12.1 0.0 1.2 47 41 340 950
19.04 - 17:40 Uhr 12.1 0.0 1.7 49 42 340 950
19.04 - 17:30 Uhr 12.3 0.0 2.5 51 32 330 950
19.04 - 17:20 Uhr 12.3 0.0 2.2 50 35 320 950
19.04 - 17:10 Uhr 12.5 0.0 2.8 52 41 330 949
19.04 - 17:00 Uhr 12.6 0.0 2.5 50 44 320 949
19.04 - 16:50 Uhr 12.6 0.0 3.6 54 39 330 949
19.04 - 16:40 Uhr 12.1 0.0 4.2 58 34 320 949
19.04 - 16:30 Uhr 11.9 0.0 4.0 58 40 300 949
19.04 - 16:20 Uhr 11.8 0.0 4.6 61 40 320 949
19.04 - 16:10 Uhr 11.4 0.0 4.8 64 40 340 949
19.04 - 16:00 Uhr 11.6 0.0 4.9 64 35 330 949
19.04 - 15:50 Uhr 11.9 0.0 5.4 64 31 330 949
19.04 - 15:40 Uhr 11.8 0.0 5.3 65 35 330 949
19.04 - 15:30 Uhr 11.7 0.0 5.8 67 35 340 949
19.04 - 15:20 Uhr 13.3 0.0 7.3 67 35 310 949
19.04 - 15:10 Uhr 12.5 0.0 5.7 63 29 310 949
19.04 - 15:00 Uhr 12.9 0.0 6.4 65 34 330 949
19.04 - 14:50 Uhr 13.9 0.0 7.4 65 35 300 949
19.04 - 14:40 Uhr 12.3 0.0 6.5 68 39 310 949
19.04 - 14:30 Uhr 12.3 0.0 6.6 68 54 310 949
19.04 - 14:20 Uhr 14.0 0.0 7.2 64 51 320 949
19.04 - 14:10 Uhr 12.9 0.0 6.7 66 45 320 948
19.04 - 14:00 Uhr 12.2 0.0 6.6 69 48 330 948
19.04 - 13:50 Uhr 12.5 0.0 7.0 69 43 310 949
19.04 - 13:40 Uhr 13.5 0.0 7.5 67 40 310 949
19.04 - 13:30 Uhr 12.4 0.0 6.3 66 41 330 949
19.04 - 13:20 Uhr 13.2 0.0 7.2 67 44 340 949
19.04 - 13:10 Uhr 13.1 0.0 6.7 65 38 330 949
19.04 - 13:00 Uhr 13.6 0.0 7.1 65 38 330 949
19.04 - 12:50 Uhr 13.3 0.0 7.1 66 33 330 949
19.04 - 12:40 Uhr 13.1 0.0 7.4 69 33 310 949
19.04 - 12:30 Uhr 13.3 0.0 7.3 67 27 320 949
19.04 - 12:20 Uhr 12.9 0.0 6.6 65 29 340 949
19.04 - 12:10 Uhr 13.4 0.0 7.1 66 32 310 949
19.04 - 12:00 Uhr 12.7 0.0 6.9 68 30 310 949
19.04 - 11:50 Uhr 13.0 0.0 7.2 68 35 340 949
19.04 - 11:40 Uhr 13.0 0.0 7.6 70 33 340 949
19.04 - 11:30 Uhr 13.1 0.0 7.4 68 39 350 949
19.04 - 11:20 Uhr 13.3 0.0 7.5 68 35 340 949
19.04 - 11:10 Uhr 13.1 0.0 7.7 70 29 300 948
19.04 - 11:00 Uhr 12.6 0.0 7.7 72 35 320 948
19.04 - 10:50 Uhr 12.1 0.0 7.5 73 42 320 948
19.04 - 10:40 Uhr 12.2 0.0 7.3 72 37 320 948
19.04 - 10:30 Uhr 12.3 0.0 7.4 72 32 310 948
19.04 - 10:20 Uhr 12.9 0.0 7.8 71 37 310 948
19.04 - 10:10 Uhr 13.1 0.0 7.7 70 37 320 948
19.04 - 10:00 Uhr 12.9 0.0 7.6 70 40 300 948
19.04 - 09:50 Uhr 12.7 0.0 7.2 69 47 320 948
19.04 - 09:40 Uhr 13.6 0.0 7.1 65 45 300 948
19.04 - 09:30 Uhr 14.3 0.0 6.9 61 23 300 947
19.04 - 09:20 Uhr 14.2 0.0 7.3 63 23 260 947
19.04 - 09:10 Uhr 13.2 0.0 8.3 72 6 230 947
19.04 - 09:00 Uhr 12.6 0.0 7.8 72 7 200 947
19.04 - 08:50 Uhr 12.1 0.0 8.2 77 7 170 947
19.04 - 08:40 Uhr 12.5 0.0 7.9 74 7 170 947
19.04 - 08:30 Uhr 12.4 0.0 7.9 74 4 170 947
19.04 - 08:20 Uhr 11.8 0.0 7.4 75 3 350 947
19.04 - 08:10 Uhr 10.9 0.0 6.8 76 1 70 947
19.04 - 08:00 Uhr 9.8 0.0 6.8 81 4 350 947
19.04 - 07:50 Uhr 9.2 0.0 6.6 84 6 360 947
19.04 - 07:40 Uhr 8.8 0.0 6.3 84 3 20 947
19.04 - 07:30 Uhr 8.9 0.0 6.3 84 3 250 947

Daten: Quelle DWD